sensor_id;sensor_type;location;lat;lon;timestamp;temperature;humidity
15341;DHT22;7770;52.158;5.372;2023-07-20T00:02:15;16.50;99.90
15341;DHT22;7770;52.158;5.372;2023-07-20T00:05:01;16.50;99.90
15341;DHT22;7770;52.158;5.372;2023-07-20T00:07:47;16.40;99.90
15341;DHT22;7770;52.158;5.372;2023-07-20T00:10:37;16.40;99.90
15341;DHT22;7770;52.158;5.372;2023-07-20T00:13:23;16.20;99.90
15341;DHT22;7770;52.158;5.372;2023-07-20T00:16:09;16.20;99.90
15341;DHT22;7770;52.158;5.372;2023-07-20T00:18:55;16.10;99.90
15341;DHT22;7770;52.158;5.372;2023-07-20T00:21:41;16.00;99.90
15341;DHT22;7770;52.158;5.372;2023-07-20T00:24:28;15.80;99.90
15341;DHT22;7770;52.158;5.372;2023-07-20T00:27:14;15.70;99.90
15341;DHT22;7770;52.158;5.372;2023-07-20T00:30:00;15.70;99.90
15341;DHT22;7770;52.158;5.372;2023-07-20T00:32:46;15.70;99.90
15341;DHT22;7770;52.158;5.372;2023-07-20T00:35:32;15.70;99.90
15341;DHT22;7770;52.158;5.372;2023-07-20T00:38:18;15.60;99.90
15341;DHT22;7770;52.158;5.372;2023-07-20T00:41:04;15.60;99.90
15341;DHT22;7770;52.158;5.372;2023-07-20T00:43:50;15.50;99.90
15341;DHT22;7770;52.158;5.372;2023-07-20T00:46:36;15.50;99.90
15341;DHT22;7770;52.158;5.372;2023-07-20T00:49:23;15.50;99.90
15341;DHT22;7770;52.158;5.372;2023-07-20T00:52:11;15.40;99.90
15341;DHT22;7770;52.158;5.372;2023-07-20T00:54:59;15.40;99.90
15341;DHT22;7770;52.158;5.372;2023-07-20T00:57:46;15.30;99.90
15341;DHT22;7770;52.158;5.372;2023-07-20T01:00:32;15.30;99.90
15341;DHT22;7770;52.158;5.372;2023-07-20T01:03:18;15.20;99.90
15341;DHT22;7770;52.158;5.372;2023-07-20T01:09:26;15.10;99.90
15341;DHT22;7770;52.158;5.372;2023-07-20T01:12:27;15.00;99.90
15341;DHT22;7770;52.158;5.372;2023-07-20T01:15:19;15.10;99.90
15341;DHT22;7770;52.158;5.372;2023-07-20T01:18:05;15.20;99.90
15341;DHT22;7770;52.158;5.372;2023-07-20T01:20:53;15.20;99.90
15341;DHT22;7770;52.158;5.372;2023-07-20T01:23:50;15.10;99.90
15341;DHT22;7770;52.158;5.372;2023-07-20T01:33:42;15.00;99.90
15341;DHT22;7770;52.158;5.372;2023-07-20T01:36:30;14.90;99.90
15341;DHT22;7770;52.158;5.372;2023-07-20T01:39:20;14.90;99.90
15341;DHT22;7770;52.158;5.372;2023-07-20T01:42:07;14.80;99.90
15341;DHT22;7770;52.158;5.372;2023-07-20T01:44:53;14.80;99.90
15341;DHT22;7770;52.158;5.372;2023-07-20T01:47:40;14.70;99.90
15341;DHT22;7770;52.158;5.372;2023-07-20T01:50:26;14.70;99.90
15341;DHT22;7770;52.158;5.372;2023-07-20T01:53:12;14.60;99.90
15341;DHT22;7770;52.158;5.372;2023-07-20T01:55:58;14.60;99.90
15341;DHT22;7770;52.158;5.372;2023-07-20T01:58:44;14.60;99.90
15341;DHT22;7770;52.158;5.372;2023-07-20T02:01:30;14.70;99.90
15341;DHT22;7770;52.158;5.372;2023-07-20T02:04:16;14.80;99.90
15341;DHT22;7770;52.158;5.372;2023-07-20T02:07:02;14.80;99.90
15341;DHT22;7770;52.158;5.372;2023-07-20T02:09:48;14.80;99.90
15341;DHT22;7770;52.158;5.372;2023-07-20T02:12:34;14.80;99.90
15341;DHT22;7770;52.158;5.372;2023-07-20T02:15:20;14.80;99.90
15341;DHT22;7770;52.158;5.372;2023-07-20T02:18:06;14.90;99.90
15341;DHT22;7770;52.158;5.372;2023-07-20T02:20:53;14.90;99.90
15341;DHT22;7770;52.158;5.372;2023-07-20T02:23:40;14.90;99.90
15341;DHT22;7770;52.158;5.372;2023-07-20T02:26:25;14.90;99.90
15341;DHT22;7770;52.158;5.372;2023-07-20T02:29:12;14.90;99.90
15341;DHT22;7770;52.158;5.372;2023-07-20T02:31:58;14.70;99.90
15341;DHT22;7770;52.158;5.372;2023-07-20T02:34:44;14.70;99.90
15341;DHT22;7770;52.158;5.372;2023-07-20T02:37:30;14.60;99.90
15341;DHT22;7770;52.158;5.372;2023-07-20T02:40:16;14.40;99.90
15341;DHT22;7770;52.158;5.372;2023-07-20T02:43:02;14.40;99.90
15341;DHT22;7770;52.158;5.372;2023-07-20T02:45:50;14.30;99.90
15341;DHT22;7770;52.158;5.372;2023-07-20T02:48:36;14.20;99.90
15341;DHT22;7770;52.158;5.372;2023-07-20T02:51:22;14.10;99.90
15341;DHT22;7770;52.158;5.372;2023-07-20T02:54:08;14.10;99.90
15341;DHT22;7770;52.158;5.372;2023-07-20T02:56:54;14.10;99.90
15341;DHT22;7770;52.158;5.372;2023-07-20T02:59:40;14.00;99.90
15341;DHT22;7770;52.158;5.372;2023-07-20T03:02:28;13.90;99.90
15341;DHT22;7770;52.158;5.372;2023-07-20T03:05:15;14.00;99.90
15341;DHT22;7770;52.158;5.372;2023-07-20T03:08:02;13.90;99.90
15341;DHT22;7770;52.158;5.372;2023-07-20T03:10:48;13.90;99.90
15341;DHT22;7770;52.158;5.372;2023-07-20T03:13:34;13.80;99.90
15341;DHT22;7770;52.158;5.372;2023-07-20T03:16:21;13.80;99.90
15341;DHT22;7770;52.158;5.372;2023-07-20T03:19:09;13.80;99.90
15341;DHT22;7770;52.158;5.372;2023-07-20T03:21:55;13.80;99.90
15341;DHT22;7770;52.158;5.372;2023-07-20T03:24:41;13.80;99.90
15341;DHT22;7770;52.158;5.372;2023-07-20T03:27:27;13.70;99.90
15341;DHT22;7770;52.158;5.372;2023-07-20T03:30:14;13.80;99.90
15341;DHT22;7770;52.158;5.372;2023-07-20T03:33:00;13.80;99.90
15341;DHT22;7770;52.158;5.372;2023-07-20T03:35:46;13.70;99.90
15341;DHT22;7770;52.158;5.372;2023-07-20T03:38:32;13.70;99.90
15341;DHT22;7770;52.158;5.372;2023-07-20T03:41:18;13.60;99.90
15341;DHT22;7770;52.158;5.372;2023-07-20T03:44:05;13.50;99.90
15341;DHT22;7770;52.158;5.372;2023-07-20T03:46:51;13.50;99.90
15341;DHT22;7770;52.158;5.372;2023-07-20T03:49:37;13.50;99.90
15341;DHT22;7770;52.158;5.372;2023-07-20T03:52:23;13.60;99.90
15341;DHT22;7770;52.158;5.372;2023-07-20T03:55:09;13.60;99.90
15341;DHT22;7770;52.158;5.372;2023-07-20T03:57:56;13.60;99.90
15341;DHT22;7770;52.158;5.372;2023-07-20T04:00:51;13.60;99.90
15341;DHT22;7770;52.158;5.372;2023-07-20T04:03:37;13.60;99.90
15341;DHT22;7770;52.158;5.372;2023-07-20T04:06:23;13.60;99.90
15341;DHT22;7770;52.158;5.372;2023-07-20T04:09:09;13.70;99.90
15341;DHT22;7770;52.158;5.372;2023-07-20T04:11:55;13.70;99.90
15341;DHT22;7770;52.158;5.372;2023-07-20T04:14:41;13.70;99.90
15341;DHT22;7770;52.158;5.372;2023-07-20T04:17:28;13.60;99.90
15341;DHT22;7770;52.158;5.372;2023-07-20T04:20:14;13.60;99.90
15341;DHT22;7770;52.158;5.372;2023-07-20T04:23:00;13.60;99.90
15341;DHT22;7770;52.158;5.372;2023-07-20T04:25:46;13.70;99.90
15341;DHT22;7770;52.158;5.372;2023-07-20T04:28:32;13.60;99.90
15341;DHT22;7770;52.158;5.372;2023-07-20T04:31:19;13.60;99.90
15341;DHT22;7770;52.158;5.372;2023-07-20T04:34:05;13.60;99.90
15341;DHT22;7770;52.158;5.372;2023-07-20T04:36:51;13.70;99.90
15341;DHT22;7770;52.158;5.372;2023-07-20T04:39:37;13.80;99.90
15341;DHT22;7770;52.158;5.372;2023-07-20T04:42:23;13.80;99.90
15341;DHT22;7770;52.158;5.372;2023-07-20T04:45:09;13.80;99.90
15341;DHT22;7770;52.158;5.372;2023-07-20T04:47:55;13.90;99.90
15341;DHT22;7770;52.158;5.372;2023-07-20T04:50:42;13.90;99.90
15341;DHT22;7770;52.158;5.372;2023-07-20T04:53:30;14.00;99.90
15341;DHT22;7770;52.158;5.372;2023-07-20T04:56:16;14.10;99.90
15341;DHT22;7770;52.158;5.372;2023-07-20T04:59:02;14.20;99.90
15341;DHT22;7770;52.158;5.372;2023-07-20T05:01:48;14.30;99.90
15341;DHT22;7770;52.158;5.372;2023-07-20T05:04:34;14.30;99.90
15341;DHT22;7770;52.158;5.372;2023-07-20T05:07:20;14.40;99.90
15341;DHT22;7770;52.158;5.372;2023-07-20T05:10:07;14.80;99.90
15341;DHT22;7770;52.158;5.372;2023-07-20T05:12:53;15.50;99.90
15341;DHT22;7770;52.158;5.372;2023-07-20T05:15:39;15.60;99.90
15341;DHT22;7770;52.158;5.372;2023-07-20T05:18:25;15.50;99.90
15341;DHT22;7770;52.158;5.372;2023-07-20T05:21:11;15.60;99.90
15341;DHT22;7770;52.158;5.372;2023-07-20T05:23:57;15.60;99.90
15341;DHT22;7770;52.158;5.372;2023-07-20T05:26:43;15.70;99.90
15341;DHT22;7770;52.158;5.372;2023-07-20T05:29:29;15.90;99.90
15341;DHT22;7770;52.158;5.372;2023-07-20T05:32:15;17.10;99.90
15341;DHT22;7770;52.158;5.372;2023-07-20T05:35:02;19.60;99.90
15341;DHT22;7770;52.158;5.372;2023-07-20T05:37:48;21.90;99.90
15341;DHT22;7770;52.158;5.372;2023-07-20T05:40:44;23.80;99.90
15341;DHT22;7770;52.158;5.372;2023-07-20T05:43:30;25.10;99.90
15341;DHT22;7770;52.158;5.372;2023-07-20T05:46:17;25.70;99.90
15341;DHT22;7770;52.158;5.372;2023-07-20T05:49:02;26.60;99.90
15341;DHT22;7770;52.158;5.372;2023-07-20T05:51:48;27.00;99.90
15341;DHT22;7770;52.158;5.372;2023-07-20T05:54:34;27.10;99.90
15341;DHT22;7770;52.158;5.372;2023-07-20T05:57:21;26.80;99.90
15341;DHT22;7770;52.158;5.372;2023-07-20T06:00:07;26.80;99.90
15341;DHT22;7770;52.158;5.372;2023-07-20T06:02:54;27.00;99.90
15341;DHT22;7770;52.158;5.372;2023-07-20T06:05:40;26.70;99.90
15341;DHT22;7770;52.158;5.372;2023-07-20T06:08:27;26.10;99.90
15341;DHT22;7770;52.158;5.372;2023-07-20T06:11:14;24.90;99.90
15341;DHT22;7770;52.158;5.372;2023-07-20T06:14:00;23.80;99.90
15341;DHT22;7770;52.158;5.372;2023-07-20T06:16:46;23.00;99.90
15341;DHT22;7770;52.158;5.372;2023-07-20T06:19:32;22.30;99.90
15341;DHT22;7770;52.158;5.372;2023-07-20T06:22:18;21.60;99.90
15341;DHT22;7770;52.158;5.372;2023-07-20T06:25:04;21.40;99.90
15341;DHT22;7770;52.158;5.372;2023-07-20T06:27:50;21.70;99.90
15341;DHT22;7770;52.158;5.372;2023-07-20T06:30:37;21.50;99.90
15341;DHT22;7770;52.158;5.372;2023-07-20T06:33:23;20.90;99.90
15341;DHT22;7770;52.158;5.372;2023-07-20T06:36:09;20.60;99.90
15341;DHT22;7770;52.158;5.372;2023-07-20T06:38:56;20.40;99.90
15341;DHT22;7770;52.158;5.372;2023-07-20T06:41:42;20.40;99.90
15341;DHT22;7770;52.158;5.372;2023-07-20T06:44:28;20.50;99.90
15341;DHT22;7770;52.158;5.372;2023-07-20T06:47:14;20.70;99.90
15341;DHT22;7770;52.158;5.372;2023-07-20T06:50:00;20.70;99.90
15341;DHT22;7770;52.158;5.372;2023-07-20T06:52:46;21.10;99.90
15341;DHT22;7770;52.158;5.372;2023-07-20T06:55:33;21.10;99.90
15341;DHT22;7770;52.158;5.372;2023-07-20T06:58:19;21.40;99.90
15341;DHT22;7770;52.158;5.372;2023-07-20T07:01:08;21.60;99.90
15341;DHT22;7770;52.158;5.372;2023-07-20T07:03:54;21.40;99.90
15341;DHT22;7770;52.158;5.372;2023-07-20T07:06:40;21.00;99.90
15341;DHT22;7770;52.158;5.372;2023-07-20T07:09:26;20.70;99.90
15341;DHT22;7770;52.158;5.372;2023-07-20T07:12:12;20.50;99.90
15341;DHT22;7770;52.158;5.372;2023-07-20T07:14:58;20.20;99.90
15341;DHT22;7770;52.158;5.372;2023-07-20T07:17:45;20.00;99.90
15341;DHT22;7770;52.158;5.372;2023-07-20T07:20:31;19.90;99.90
15341;DHT22;7770;52.158;5.372;2023-07-20T07:23:17;20.10;99.90
15341;DHT22;7770;52.158;5.372;2023-07-20T07:26:04;20.70;99.90
15341;DHT22;7770;52.158;5.372;2023-07-20T07:28:50;21.70;99.90
15341;DHT22;7770;52.158;5.372;2023-07-20T07:31:36;22.10;99.90
15341;DHT22;7770;52.158;5.372;2023-07-20T07:34:22;22.60;99.90
15341;DHT22;7770;52.158;5.372;2023-07-20T07:37:08;23.50;99.90
15341;DHT22;7770;52.158;5.372;2023-07-20T07:39:54;24.80;99.90
15341;DHT22;7770;52.158;5.372;2023-07-20T07:42:40;26.00;99.90
15341;DHT22;7770;52.158;5.372;2023-07-20T07:45:26;27.20;99.00
15341;DHT22;7770;52.158;5.372;2023-07-20T07:48:12;28.10;97.40
15341;DHT22;7770;52.158;5.372;2023-07-20T07:50:59;29.20;95.30
15341;DHT22;7770;52.158;5.372;2023-07-20T07:53:46;29.40;95.40
15341;DHT22;7770;52.158;5.372;2023-07-20T07:56:32;30.50;94.50
15341;DHT22;7770;52.158;5.372;2023-07-20T07:59:18;31.40;93.40
15341;DHT22;7770;52.158;5.372;2023-07-20T08:02:05;31.70;92.40
15341;DHT22;7770;52.158;5.372;2023-07-20T08:04:51;31.50;92.50
15341;DHT22;7770;52.158;5.372;2023-07-20T08:07:38;31.90;91.30
15341;DHT22;7770;52.158;5.372;2023-07-20T08:10:24;31.10;91.90
15341;DHT22;7770;52.158;5.372;2023-07-20T08:13:10;31.40;91.60
15341;DHT22;7770;52.158;5.372;2023-07-20T08:15:56;30.80;91.80
15341;DHT22;7770;52.158;5.372;2023-07-20T08:18:42;31.80;91.50
15341;DHT22;7770;52.158;5.372;2023-07-20T08:21:29;32.20;90.20
15341;DHT22;7770;52.158;5.372;2023-07-20T08:24:15;32.60;88.50
15341;DHT22;7770;52.158;5.372;2023-07-20T08:27:01;31.80;86.70
15341;DHT22;7770;52.158;5.372;2023-07-20T08:29:47;30.90;87.90
15341;DHT22;7770;52.158;5.372;2023-07-20T08:32:33;31.20;90.00
15341;DHT22;7770;52.158;5.372;2023-07-20T08:35:19;32.00;87.60
15341;DHT22;7770;52.158;5.372;2023-07-20T08:38:06;32.80;85.80
15341;DHT22;7770;52.158;5.372;2023-07-20T08:40:53;33.10;83.70
15341;DHT22;7770;52.158;5.372;2023-07-20T08:43:42;33.20;82.90
15341;DHT22;7770;52.158;5.372;2023-07-20T08:46:29;33.40;81.10
15341;DHT22;7770;52.158;5.372;2023-07-20T08:49:17;32.70;81.80
15341;DHT22;7770;52.158;5.372;2023-07-20T08:52:04;33.30;82.20
15341;DHT22;7770;52.158;5.372;2023-07-20T08:54:50;33.50;84.00
15341;DHT22;7770;52.158;5.372;2023-07-20T08:57:39;33.10;85.10
15341;DHT22;7770;52.158;5.372;2023-07-20T09:00:27;32.80;83.20
15341;DHT22;7770;52.158;5.372;2023-07-20T09:03:15;33.00;84.70
15341;DHT22;7770;52.158;5.372;2023-07-20T09:06:01;33.40;81.10
15341;DHT22;7770;52.158;5.372;2023-07-20T09:08:47;33.40;83.60
15341;DHT22;7770;52.158;5.372;2023-07-20T09:11:33;33.50;84.30
15341;DHT22;7770;52.158;5.372;2023-07-20T09:14:19;33.90;83.00
15341;DHT22;7770;52.158;5.372;2023-07-20T09:17:05;34.00;83.10
15341;DHT22;7770;52.158;5.372;2023-07-20T09:19:51;33.40;82.90
15341;DHT22;7770;52.158;5.372;2023-07-20T09:22:38;33.30;82.80
15341;DHT22;7770;52.158;5.372;2023-07-20T09:25:27;32.60;83.70
15341;DHT22;7770;52.158;5.372;2023-07-20T09:28:13;31.00;83.60
15341;DHT22;7770;52.158;5.372;2023-07-20T09:31:16;30.70;84.20
15341;DHT22;7770;52.158;5.372;2023-07-20T09:34:04;31.50;83.60
15341;DHT22;7770;52.158;5.372;2023-07-20T09:36:51;32.80;79.30
15341;DHT22;7770;52.158;5.372;2023-07-20T09:39:45;33.60;77.00
15341;DHT22;7770;52.158;5.372;2023-07-20T09:42:31;34.40;74.90
15341;DHT22;7770;52.158;5.372;2023-07-20T09:45:17;34.20;73.80
15341;DHT22;7770;52.158;5.372;2023-07-20T09:48:08;34.00;76.60
15341;DHT22;7770;52.158;5.372;2023-07-20T09:50:56;33.70;76.60
15341;DHT22;7770;52.158;5.372;2023-07-20T09:53:42;34.50;72.40
15341;DHT22;7770;52.158;5.372;2023-07-20T09:56:30;35.10;69.80
15341;DHT22;7770;52.158;5.372;2023-07-20T09:59:16;35.40;72.40
15341;DHT22;7770;52.158;5.372;2023-07-20T10:02:07;36.00;71.40
15341;DHT22;7770;52.158;5.372;2023-07-20T10:05:03;36.10;70.70
15341;DHT22;7770;52.158;5.372;2023-07-20T10:07:50;36.30;71.50
15341;DHT22;7770;52.158;5.372;2023-07-20T10:10:40;36.10;69.60
15341;DHT22;7770;52.158;5.372;2023-07-20T10:13:30;35.50;72.40
15341;DHT22;7770;52.158;5.372;2023-07-20T10:16:29;35.10;71.20
15341;DHT22;7770;52.158;5.372;2023-07-20T10:19:24;35.00;73.00
15341;DHT22;7770;52.158;5.372;2023-07-20T10:22:19;35.60;71.60
15341;DHT22;7770;52.158;5.372;2023-07-20T10:25:11;36.20;70.20
15341;DHT22;7770;52.158;5.372;2023-07-20T10:27:58;36.00;70.60
15341;DHT22;7770;52.158;5.372;2023-07-20T10:30:45;36.50;71.10
15341;DHT22;7770;52.158;5.372;2023-07-20T10:33:32;36.50;69.20
15341;DHT22;7770;52.158;5.372;2023-07-20T10:36:25;35.70;70.70
15341;DHT22;7770;52.158;5.372;2023-07-20T10:39:26;33.90;73.60
15341;DHT22;7770;52.158;5.372;2023-07-20T10:42:13;33.30;74.00
15341;DHT22;7770;52.158;5.372;2023-07-20T10:45:01;33.20;76.30
15341;DHT22;7770;52.158;5.372;2023-07-20T10:47:47;34.00;76.40
15341;DHT22;7770;52.158;5.372;2023-07-20T10:50:33;34.50;75.00
15341;DHT22;7770;52.158;5.372;2023-07-20T10:53:20;34.60;74.50
15341;DHT22;7770;52.158;5.372;2023-07-20T10:56:13;34.80;74.60
15341;DHT22;7770;52.158;5.372;2023-07-20T10:59:01;35.00;72.10
15341;DHT22;7770;52.158;5.372;2023-07-20T11:02:08;35.30;72.90
15341;DHT22;7770;52.158;5.372;2023-07-20T11:04:54;35.30;71.60
15341;DHT22;7770;52.158;5.372;2023-07-20T11:07:41;35.80;71.20
15341;DHT22;7770;52.158;5.372;2023-07-20T11:10:27;36.00;69.80
15341;DHT22;7770;52.158;5.372;2023-07-20T11:13:20;35.70;68.90
15341;DHT22;7770;52.158;5.372;2023-07-20T11:16:08;34.30;72.50
15341;DHT22;7770;52.158;5.372;2023-07-20T11:18:55;33.50;70.60
15341;DHT22;7770;52.158;5.372;2023-07-20T11:21:43;32.80;71.40
15341;DHT22;7770;52.158;5.372;2023-07-20T11:24:30;32.20;72.60
15341;DHT22;7770;52.158;5.372;2023-07-20T11:27:16;32.00;72.20
15341;DHT22;7770;52.158;5.372;2023-07-20T11:30:15;31.30;71.90
15341;DHT22;7770;52.158;5.372;2023-07-20T11:33:02;31.00;72.80
15341;DHT22;7770;52.158;5.372;2023-07-20T11:35:49;30.70;74.00
15341;DHT22;7770;52.158;5.372;2023-07-20T11:38:36;30.60;74.90
15341;DHT22;7770;52.158;5.372;2023-07-20T11:41:22;30.90;75.00
15341;DHT22;7770;52.158;5.372;2023-07-20T11:44:09;31.10;76.80
15341;DHT22;7770;52.158;5.372;2023-07-20T11:47:10;30.90;74.00
15341;DHT22;7770;52.158;5.372;2023-07-20T11:50:03;31.20;75.10
15341;DHT22;7770;52.158;5.372;2023-07-20T11:52:49;31.50;73.50
15341;DHT22;7770;52.158;5.372;2023-07-20T11:55:36;31.90;73.30
15341;DHT22;7770;52.158;5.372;2023-07-20T11:58:22;31.90;72.00
15341;DHT22;7770;52.158;5.372;2023-07-20T12:01:08;31.60;74.10
15341;DHT22;7770;52.158;5.372;2023-07-20T12:03:56;31.90;73.70
15341;DHT22;7770;52.158;5.372;2023-07-20T12:06:42;31.70;75.20
15341;DHT22;7770;52.158;5.372;2023-07-20T12:09:28;31.90;73.70
15341;DHT22;7770;52.158;5.372;2023-07-20T12:12:14;32.10;74.20
15341;DHT22;7770;52.158;5.372;2023-07-20T12:15:33;30.90;75.40
15341;DHT22;7770;52.158;5.372;2023-07-20T12:18:22;29.40;76.90
15341;DHT22;7770;52.158;5.372;2023-07-20T12:21:09;28.90;80.10
15341;DHT22;7770;52.158;5.372;2023-07-20T12:23:57;28.90;81.80
15341;DHT22;7770;52.158;5.372;2023-07-20T12:26:44;29.50;79.40
15341;DHT22;7770;52.158;5.372;2023-07-20T12:29:30;30.20;78.60
15341;DHT22;7770;52.158;5.372;2023-07-20T12:32:17;30.40;77.90
15341;DHT22;7770;52.158;5.372;2023-07-20T12:35:04;30.00;79.30
15341;DHT22;7770;52.158;5.372;2023-07-20T12:37:50;29.60;79.30
15341;DHT22;7770;52.158;5.372;2023-07-20T12:40:37;29.70;79.60
15341;DHT22;7770;52.158;5.372;2023-07-20T12:43:23;29.40;80.80
15341;DHT22;7770;52.158;5.372;2023-07-20T12:46:10;29.60;81.60
15341;DHT22;7770;52.158;5.372;2023-07-20T12:48:57;28.90;79.80
15341;DHT22;7770;52.158;5.372;2023-07-20T12:51:43;28.20;81.70
15341;DHT22;7770;52.158;5.372;2023-07-20T12:54:29;27.70;81.70
15341;DHT22;7770;52.158;5.372;2023-07-20T12:57:15;27.20;82.40
15341;DHT22;7770;52.158;5.372;2023-07-20T13:00:03;27.30;82.30
15341;DHT22;7770;52.158;5.372;2023-07-20T13:02:50;27.20;83.60
15341;DHT22;7770;52.158;5.372;2023-07-20T13:05:37;27.40;81.90
15341;DHT22;7770;52.158;5.372;2023-07-20T13:08:23;27.30;82.80
15341;DHT22;7770;52.158;5.372;2023-07-20T13:11:11;27.50;81.80
15341;DHT22;7770;52.158;5.372;2023-07-20T13:13:57;27.50;83.50
15341;DHT22;7770;52.158;5.372;2023-07-20T13:16:43;27.40;84.20
15341;DHT22;7770;52.158;5.372;2023-07-20T13:19:28;27.40;83.30
15341;DHT22;7770;52.158;5.372;2023-07-20T13:22:14;27.80;83.90
15341;DHT22;7770;52.158;5.372;2023-07-20T13:25:01;27.90;83.50
15341;DHT22;7770;52.158;5.372;2023-07-20T13:27:47;28.10;84.80
15341;DHT22;7770;52.158;5.372;2023-07-20T13:30:33;28.50;84.60
15341;DHT22;7770;52.158;5.372;2023-07-20T13:33:19;28.40;82.50
15341;DHT22;7770;52.158;5.372;2023-07-20T13:36:05;27.60;84.80
15341;DHT22;7770;52.158;5.372;2023-07-20T13:38:51;27.10;85.40
15341;DHT22;7770;52.158;5.372;2023-07-20T13:41:37;26.60;85.60
15341;DHT22;7770;52.158;5.372;2023-07-20T13:44:23;26.20;86.30
15341;DHT22;7770;52.158;5.372;2023-07-20T13:47:09;26.30;86.60
15341;DHT22;7770;52.158;5.372;2023-07-20T13:49:55;26.40;85.70
15341;DHT22;7770;52.158;5.372;2023-07-20T13:52:41;26.40;87.30
15341;DHT22;7770;52.158;5.372;2023-07-20T13:55:27;26.40;87.20
15341;DHT22;7770;52.158;5.372;2023-07-20T13:58:14;26.40;87.10
15341;DHT22;7770;52.158;5.372;2023-07-20T14:01:00;26.10;88.70
15341;DHT22;7770;52.158;5.372;2023-07-20T14:03:46;26.00;89.70
15341;DHT22;7770;52.158;5.372;2023-07-20T14:06:33;26.00;90.30
15341;DHT22;7770;52.158;5.372;2023-07-20T14:09:19;26.60;88.70
15341;DHT22;7770;52.158;5.372;2023-07-20T14:12:05;27.10;86.90
15341;DHT22;7770;52.158;5.372;2023-07-20T14:14:53;27.20;86.60
15341;DHT22;7770;52.158;5.372;2023-07-20T14:17:39;26.70;86.60
15341;DHT22;7770;52.158;5.372;2023-07-20T14:20:25;26.60;87.60
15341;DHT22;7770;52.158;5.372;2023-07-20T14:23:11;26.50;87.90
15341;DHT22;7770;52.158;5.372;2023-07-20T14:25:57;26.20;86.90
15341;DHT22;7770;52.158;5.372;2023-07-20T14:28:44;26.30;87.40
15341;DHT22;7770;52.158;5.372;2023-07-20T14:31:30;26.10;87.30
15341;DHT22;7770;52.158;5.372;2023-07-20T14:34:17;26.00;88.50
15341;DHT22;7770;52.158;5.372;2023-07-20T14:37:04;26.00;88.30
15341;DHT22;7770;52.158;5.372;2023-07-20T14:39:50;26.00;88.90
15341;DHT22;7770;52.158;5.372;2023-07-20T14:42:36;25.80;89.50
15341;DHT22;7770;52.158;5.372;2023-07-20T14:45:22;25.70;89.40
15341;DHT22;7770;52.158;5.372;2023-07-20T14:48:08;25.80;89.70
15341;DHT22;7770;52.158;5.372;2023-07-20T14:50:54;25.70;89.60
15341;DHT22;7770;52.158;5.372;2023-07-20T14:53:40;25.70;89.50
15341;DHT22;7770;52.158;5.372;2023-07-20T14:56:27;25.60;90.00
15341;DHT22;7770;52.158;5.372;2023-07-20T14:59:13;25.80;88.80
15341;DHT22;7770;52.158;5.372;2023-07-20T15:01:59;25.80;85.50
15341;DHT22;7770;52.158;5.372;2023-07-20T15:04:49;26.10;90.00
15341;DHT22;7770;52.158;5.372;2023-07-20T15:07:36;26.00;90.40
15341;DHT22;7770;52.158;5.372;2023-07-20T15:10:22;26.00;90.50
15341;DHT22;7770;52.158;5.372;2023-07-20T15:13:08;25.70;90.60
15341;DHT22;7770;52.158;5.372;2023-07-20T15:15:55;25.60;90.60
15341;DHT22;7770;52.158;5.372;2023-07-20T15:18:41;25.60;90.30
15341;DHT22;7770;52.158;5.372;2023-07-20T15:21:27;25.40;90.70
15341;DHT22;7770;52.158;5.372;2023-07-20T15:24:15;25.10;90.40
15341;DHT22;7770;52.158;5.372;2023-07-20T15:27:01;24.80;91.50
15341;DHT22;7770;52.158;5.372;2023-07-20T15:29:49;24.60;91.90
15341;DHT22;7770;52.158;5.372;2023-07-20T15:32:35;24.60;92.30
15341;DHT22;7770;52.158;5.372;2023-07-20T15:35:21;24.40;91.90
15341;DHT22;7770;52.158;5.372;2023-07-20T15:38:07;24.40;92.90
15341;DHT22;7770;52.158;5.372;2023-07-20T15:40:53;24.40;92.40
15341;DHT22;7770;52.158;5.372;2023-07-20T15:43:42;24.40;92.70
15341;DHT22;7770;52.158;5.372;2023-07-20T15:49:27;24.40;93.10
15341;DHT22;7770;52.158;5.372;2023-07-20T15:52:13;24.40;92.00
15341;DHT22;7770;52.158;5.372;2023-07-20T15:54:59;24.20;92.40
15341;DHT22;7770;52.158;5.372;2023-07-20T15:57:45;24.20;91.90
15341;DHT22;7770;52.158;5.372;2023-07-20T16:00:31;24.20;92.30
15341;DHT22;7770;52.158;5.372;2023-07-20T16:03:17;24.30;91.90
15341;DHT22;7770;52.158;5.372;2023-07-20T16:06:03;24.30;92.30
15341;DHT22;7770;52.158;5.372;2023-07-20T16:08:50;24.20;92.40
15341;DHT22;7770;52.158;5.372;2023-07-20T16:11:37;24.00;93.20
15341;DHT22;7770;52.158;5.372;2023-07-20T16:14:23;24.00;92.80
15341;DHT22;7770;52.158;5.372;2023-07-20T16:17:09;24.00;92.90
15341;DHT22;7770;52.158;5.372;2023-07-20T16:19:55;24.00;92.70
15341;DHT22;7770;52.158;5.372;2023-07-20T16:22:42;23.90;93.00
15341;DHT22;7770;52.158;5.372;2023-07-20T16:25:28;23.90;92.90
15341;DHT22;7770;52.158;5.372;2023-07-20T16:28:14;23.80;93.30
15341;DHT22;7770;52.158;5.372;2023-07-20T16:31:09;23.80;93.10
15341;DHT22;7770;52.158;5.372;2023-07-20T16:33:58;23.80;93.20
15341;DHT22;7770;52.158;5.372;2023-07-20T16:36:44;23.80;93.50
15341;DHT22;7770;52.158;5.372;2023-07-20T16:39:30;23.80;93.90
15341;DHT22;7770;52.158;5.372;2023-07-20T16:42:17;23.60;94.00
15341;DHT22;7770;52.158;5.372;2023-07-20T16:45:05;23.70;93.40
15341;DHT22;7770;52.158;5.372;2023-07-20T16:47:51;23.60;93.60
15341;DHT22;7770;52.158;5.372;2023-07-20T16:50:37;23.60;94.20
15341;DHT22;7770;52.158;5.372;2023-07-20T16:53:24;23.70;94.60
15341;DHT22;7770;52.158;5.372;2023-07-20T16:56:10;23.60;94.50
15341;DHT22;7770;52.158;5.372;2023-07-20T16:58:57;23.50;94.90
15341;DHT22;7770;52.158;5.372;2023-07-20T17:01:43;23.40;95.20
15341;DHT22;7770;52.158;5.372;2023-07-20T17:04:30;23.40;95.30
15341;DHT22;7770;52.158;5.372;2023-07-20T17:07:17;23.30;95.70
15341;DHT22;7770;52.158;5.372;2023-07-20T17:10:03;23.20;95.70
15341;DHT22;7770;52.158;5.372;2023-07-20T17:12:52;23.10;96.00
15341;DHT22;7770;52.158;5.372;2023-07-20T17:15:38;22.90;95.60
15341;DHT22;7770;52.158;5.372;2023-07-20T17:18:24;22.90;95.90
15341;DHT22;7770;52.158;5.372;2023-07-20T17:21:10;22.80;96.20
15341;DHT22;7770;52.158;5.372;2023-07-20T17:23:57;22.70;96.50
15341;DHT22;7770;52.158;5.372;2023-07-20T17:26:43;22.70;96.70
15341;DHT22;7770;52.158;5.372;2023-07-20T17:29:29;22.60;97.10
15341;DHT22;7770;52.158;5.372;2023-07-20T17:32:15;22.50;97.10
15341;DHT22;7770;52.158;5.372;2023-07-20T17:35:02;22.50;97.50
15341;DHT22;7770;52.158;5.372;2023-07-20T17:37:49;22.20;97.80
15341;DHT22;7770;52.158;5.372;2023-07-20T17:40:35;22.20;98.50
15341;DHT22;7770;52.158;5.372;2023-07-20T17:43:21;22.10;98.60
15341;DHT22;7770;52.158;5.372;2023-07-20T17:46:07;22.00;98.80
15341;DHT22;7770;52.158;5.372;2023-07-20T17:48:53;22.00;99.20
15341;DHT22;7770;52.158;5.372;2023-07-20T17:51:39;21.90;99.30
15341;DHT22;7770;52.158;5.372;2023-07-20T17:54:25;21.80;99.70
15341;DHT22;7770;52.158;5.372;2023-07-20T17:57:11;21.70;99.90
15341;DHT22;7770;52.158;5.372;2023-07-20T17:59:57;21.60;99.30
15341;DHT22;7770;52.158;5.372;2023-07-20T18:02:43;21.50;99.20
15341;DHT22;7770;52.158;5.372;2023-07-20T18:05:29;21.50;99.50